Portada
METAR-TAF:

METAR-TAF

Aeroports :

Tamchy, Kirguizistan

latitud: 42-35-17N, longitud: 076-42-47E, altitud: 1653 m

Observació

L'informe es va fer fa 45 minuts, a les 16:00 UTC
Vent 2 kt del Nord/Nord-Oest
Temperatura -3°C
Humitat 68%
Pressió 1024 hPa
Visibilitat 10 km o més
Núvols disperses a una alçada de 2600 ft
Cel ennuvolat a una alçada de 10000 ft

METAR: UCFL 251600Z 33001MPS 9999 SCT026 BKN100 M03/M08 Q1024 R07/4/0395

Hora: 22:45 (16:45 UTC)

Pronòstic

L'informe es va fer fa 2 hores i 50 minuts, a les 13:55 UTC
Pronòstic vàlid del 25 a les 15 UTC al 25 a les 24 UTC
Vent 6 kt del Nord/Nord-Est amb ràfegues de 16 kt
Visibilitat 10 km o més
Núvols disperses a una alçada de 2000 ft, Cumulonimbus.
Cel ennuvolat a una alçada de 10000 ft

TAF: UCFL 251355Z 2515/2524 02003G08MPS 9999 SCT020CB BKN100

Observacions i pronòstics meteorològics de més de 4000 aeroports (METAR i TAF).

Les estacions disponibles són els punts grocs i vermells al mapa.

Posi el ratolí al punt desitjat per veure el nom de l'estació.

Feu clic per veure les observacions i els pronòstics meteorològics.

Per canviar el mapa: feu clic els botons verds amb una creu de color negre per apropar; al botó verd amb un guió per allunyar la imatge; o en les fletxes verdes per a mapes adjacents.


METAR-TAF: